Lady Debora — V2QG7 — position and weather

sailwx.info

Track history (hours):
 
Tides and Currents Weather Stations Pressure Air Temp Water Temp Dewpoint Dewpoint Depression Visibility Wind Speed Wind Dir Waves Ship Positions

Lady Debora

Last reported at 2017-Apr-22 11:25 UTC. Time now 2017-Apr-23 14:01 UTC.
Position N 36°16' E 014°52'.

Length 107 m; draft 7 m.

Type: Cargo ship. MMSI: 304010760.

Date/timePositionNaut miles runAvg speedWind from/ knotsBaromVisibWave heightAir tempDewpointWater temp
2017-Apr-22 11:25N 36°16' E 014°52'610.5
2017-Apr-22 10:51N 36°18' E 014°45'410.6
2017-Apr-22 10:29N 36°19' E 014°40'510.7
2017-Apr-22 10:00N 36°21' E 014°34'510.8
2017-Apr-22 09:30N 36°23' E 014°28'611.0
2017-Apr-22 09:00N 36°24' E 014°21'511.0
2017-Apr-22 08:30N 36°26' E 014°15'611.1
2017-Apr-22 08:00N 36°27' E 014°08'  
2017-Apr-18 20:28N 36°36' W 000°03'4 9.1
2017-Apr-18 20:00N 36°36' W 000°08'5 9.1
2017-Apr-18 19:30N 36°35' W 000°14'12 9.3
2017-Apr-18 18:12N 36°34' W 000°29'2 9.5
2017-Apr-18 18:00N 36°33' W 000°31'5 9.4
2017-Apr-18 17:25N 36°32' W 000°38'4 9.2
2017-Apr-18 17:00N 36°32' W 000°43'5 9.5
2017-Apr-18 16:26N 36°31' W 000°49'410.0
2017-Apr-18 16:00N 36°30' W 000°55'510.3
2017-Apr-18 15:29N 36°29' W 001°01'510.6
2017-Apr-18 15:00N 36°29' W 001°08'510.4
2017-Apr-18 14:30N 36°28' W 001°14'1010.3
2017-Apr-18 13:30N 36°27' W 001°27'710.5
2017-Apr-18 12:53N 36°26' W 001°35'95 9.9
2017-Apr-18 03:16N 36°12' W 003°32'410.5
2017-Apr-18 02:52N 36°11' W 003°37'710.0
2017-Apr-18 02:08N 36°10' W 003°46'1 7.9
2017-Apr-18 02:00N 36°10' W 003°47'5 9.4
2017-Apr-18 01:30N 36°09' W 003°53'510.2
2017-Apr-18 01:00N 36°08' W 003°59'510.6
2017-Apr-18 00:29N 36°08' W 004°06'510.8
2017-Apr-18 00:00N 36°07' W 004°12'811.8
2017-Apr-17 23:20N 36°06' W 004°22'512.1
2017-Apr-17 22:57N 36°05' W 004°27'611.6
2017-Apr-17 22:28N 36°04' W 004°35'511.5
2017-Apr-17 22:00N 36°03' W 004°41'2211.4
2017-Apr-17 20:06N 35°60' W 005°07'111.1
2017-Apr-17 19:59N 35°60' W 005°09'510.7
2017-Apr-17 19:30N 35°59' W 005°15'611.1
2017-Apr-17 19:01N 35°58' W 005°22'611.0
2017-Apr-17 18:30N 35°57' W 005°29'510.3
2017-Apr-17 18:00N 35°55' W 005°35'510.0
2017-Apr-17 17:30N 35°54' W 005°41'510.0
2017-Apr-17 17:00N 35°54' W 005°47'66 9.4
2017-Apr-17 09:59N 36°06' W 007°08'5 9.4
2017-Apr-17 09:30N 36°07' W 007°13'26 9.7
2017-Apr-17 06:51N 36°14' W 007°44'410.1
2017-Apr-17 06:30N 36°15' W 007°48'610.0
2017-Apr-17 05:53N 36°16' W 007°56'410.0
2017-Apr-17 05:27N 36°18' W 008°01'2610.2
2017-Apr-17 02:56N 36°24' W 008°32'510.4
2017-Apr-17 02:27N 36°26' W 008°38'1210.1
2017-Apr-17 01:16N 36°29' W 008°52'610.2
2017-Apr-17 00:40N 36°30' W 008°59'210.2
2017-Apr-17 00:27N 36°31' W 009°02'510.1
2017-Apr-17 00:00N 36°32' W 009°07'610.0
2017-Apr-16 23:21N 36°34' W 009°15'5 9.7
2017-Apr-16 22:53N 36°36' W 009°20'410.0
2017-Apr-16 22:30N 36°39' W 009°23'610.5
2017-Apr-16 21:56N 36°44' W 009°28'410.2
2017-Apr-16 21:31N 36°47' W 009°32'510.1
2017-Apr-16 21:00N 36°52' W 009°34'510.2
2017-Apr-16 20:30N 36°57' W 009°35'510.1
2017-Apr-16 20:00N 37°02' W 009°36'510.1
2017-Apr-16 19:29N 37°07' W 009°38'510.3
2017-Apr-16 19:00N 37°11' W 009°40'510.2
2017-Apr-16 18:30N 37°16' W 009°41'510.4
2017-Apr-16 18:00N 37°21' W 009°43'510.4
2017-Apr-16 17:30N 37°27' W 009°44'510.6
2017-Apr-16 17:01N 37°32' W 009°46'510.9
2017-Apr-16 16:31N 37°37' W 009°47'611.0
2017-Apr-16 16:00N 37°42' W 009°48'511.0
2017-Apr-16 15:31N 37°48' W 009°49'611.0
2017-Apr-16 15:01N 37°53' W 009°51'510.8
2017-Apr-16 14:31N 37°59' W 009°52'1110.7
2017-Apr-16 13:30N 38°09' W 009°55'510.6
2017-Apr-16 13:00N 38°14' W 009°56'510.5
2017-Apr-16 12:30N 38°19' W 009°58'510.6
2017-Apr-16 12:00N 38°24' W 009°60'510.5
2017-Apr-16 11:30N 38°30' W 010°01'610.5
2017-Apr-16 10:54N 38°36' W 010°03'410.6
2017-Apr-16 10:31N 38°40' W 010°04'510.1
2017-Apr-16 10:00N 38°45' W 010°06'510.2
2017-Apr-16 09:30N 38°50' W 010°06'510.8
2017-Apr-16 09:00N 38°55' W 010°06'510.5
2017-Apr-16 08:30N 39°00' W 010°06'510.9
2017-Apr-16 08:00N 39°06' W 010°06'510.6
2017-Apr-16 07:30N 39°11' W 010°06'510.1
2017-Apr-16 07:00N 39°16' W 010°06'610.4
2017-Apr-16 06:25N 39°22' W 010°06'410.4
2017-Apr-16 06:00N 39°27' W 010°06'510.2
2017-Apr-16 05:30N 39°32' W 010°06'510.4
2017-Apr-16 05:00N 39°37' W 010°06'610.4
2017-Apr-16 04:23N 39°43' W 010°06'  
2017-Apr-13 10:16N 49°40' W 003°48'410.5
2017-Apr-13 09:53N 49°42' W 003°42'410.1
2017-Apr-13 09:30N 49°44' W 003°37'5 9.5
2017-Apr-13 09:00N 49°46' W 003°30'5 9.1
2017-Apr-13 08:30N 49°48' W 003°24'4 8.6
2017-Apr-13 08:01N 49°50' W 003°19'4 8.5
2017-Apr-13 07:30N 49°52' W 003°13'5 8.6
2017-Apr-13 06:59N 49°55' W 003°07'4 8.5
2017-Apr-13 06:30N 49°56' W 003°01'5 9.3
2017-Apr-13 06:00N 49°59' W 002°55'5 9.8
2017-Apr-13 05:30N 50°00' W 002°48'9410.2
2017-Apr-12 20:20N 50°25' W 000°27'2 7.1
2017-Apr-12 20:00N 50°26' W 000°23'4 7.7
2017-Apr-12 19:30N 50°27' W 000°18'4 8.5
2017-Apr-12 19:00N 50°28' W 000°11'5 9.0
2017-Apr-12 18:28N 50°29' W 000°04'4 9.4
2017-Apr-12 18:00N 50°30' E 000°03'5 9.8
2017-Apr-12 17:30N 50°32' E 000°10'510.0
2017-Apr-12 17:00N 50°33' E 000°18'510.0
2017-Apr-12 16:29N 50°34' E 000°26'5 9.9
2017-Apr-12 16:00N 50°36' E 000°33'5 9.3
2017-Apr-12 15:31N 50°38' E 000°39'5 9.3
2017-Apr-12 14:58N 50°41' E 000°46'8 8.8
2017-Apr-12 14:00N 50°46' E 000°57'11 7.6
2017-Apr-12 12:35N 50°52' E 001°11'1 7.2
2017-Apr-12 12:23N 50°53' E 001°13'3 7.1
2017-Apr-12 12:00N 50°54' E 001°16'4 7.0
2017-Apr-12 11:29N 50°57' E 001°21'  
Track history (hours):
 
Tides and Currents Weather Stations Pressure Air Temp Water Temp Dewpoint Dewpoint Depression Visibility Wind Speed Wind Dir Waves Ship Positions

Lady Debora

Last reported at 2017-Apr-22 11:25 UTC. Time now 2017-Apr-23 14:01 UTC.
Position N 36°16' E 014°52'.

Length 107 m; draft 7 m.

Type: Cargo ship. MMSI: 304010760.

Date/timePositionNaut miles runAvg speedWind from/ knotsBaromVisibWave heightAir tempDewpointWater temp
2017-Apr-22 11:25N 36°16' E 014°52'610.5
2017-Apr-22 10:51N 36°18' E 014°45'410.6
2017-Apr-22 10:29N 36°19' E 014°40'510.7
2017-Apr-22 10:00N 36°21' E 014°34'510.8
2017-Apr-22 09:30N 36°23' E 014°28'611.0
2017-Apr-22 09:00N 36°24' E 014°21'511.0
2017-Apr-22 08:30N 36°26' E 014°15'611.1
2017-Apr-22 08:00N 36°27' E 014°08'  
2017-Apr-18 20:28N 36°36' W 000°03'4 9.1
2017-Apr-18 20:00N 36°36' W 000°08'5 9.1
2017-Apr-18 19:30N 36°35' W 000°14'12 9.3
2017-Apr-18 18:12N 36°34' W 000°29'2 9.5
2017-Apr-18 18:00N 36°33' W 000°31'5 9.4
2017-Apr-18 17:25N 36°32' W 000°38'4 9.2
2017-Apr-18 17:00N 36°32' W 000°43'5 9.5
2017-Apr-18 16:26N 36°31' W 000°49'410.0
2017-Apr-18 16:00N 36°30' W 000°55'510.3
2017-Apr-18 15:29N 36°29' W 001°01'510.6
2017-Apr-18 15:00N 36°29' W 001°08'510.4
2017-Apr-18 14:30N 36°28' W 001°14'1010.3
2017-Apr-18 13:30N 36°27' W 001°27'710.5
2017-Apr-18 12:53N 36°26' W 001°35'95 9.9
2017-Apr-18 03:16N 36°12' W 003°32'410.5
2017-Apr-18 02:52N 36°11' W 003°37'710.0
2017-Apr-18 02:08N 36°10' W 003°46'1 7.9
2017-Apr-18 02:00N 36°10' W 003°47'5 9.4
2017-Apr-18 01:30N 36°09' W 003°53'510.2
2017-Apr-18 01:00N 36°08' W 003°59'510.6
2017-Apr-18 00:29N 36°08' W 004°06'510.8
2017-Apr-18 00:00N 36°07' W 004°12'811.8
2017-Apr-17 23:20N 36°06' W 004°22'512.1
2017-Apr-17 22:57N 36°05' W 004°27'611.6
2017-Apr-17 22:28N 36°04' W 004°35'511.5
2017-Apr-17 22:00N 36°03' W 004°41'2211.4
2017-Apr-17 20:06N 35°60' W 005°07'111.1
2017-Apr-17 19:59N 35°60' W 005°09'510.7
2017-Apr-17 19:30N 35°59' W 005°15'611.1
2017-Apr-17 19:01N 35°58' W 005°22'611.0
2017-Apr-17 18:30N 35°57' W 005°29'510.3
2017-Apr-17 18:00N 35°55' W 005°35'510.0
2017-Apr-17 17:30N 35°54' W 005°41'510.0
2017-Apr-17 17:00N 35°54' W 005°47'66 9.4
2017-Apr-17 09:59N 36°06' W 007°08'5 9.4
2017-Apr-17 09:30N 36°07' W 007°13'26 9.7
2017-Apr-17 06:51N 36°14' W 007°44'410.1
2017-Apr-17 06:30N 36°15' W 007°48'610.0
2017-Apr-17 05:53N 36°16' W 007°56'410.0
2017-Apr-17 05:27N 36°18' W 008°01'2610.2
2017-Apr-17 02:56N 36°24' W 008°32'510.4
2017-Apr-17 02:27N 36°26' W 008°38'1210.1
2017-Apr-17 01:16N 36°29' W 008°52'610.2
2017-Apr-17 00:40N 36°30' W 008°59'210.2
2017-Apr-17 00:27N 36°31' W 009°02'510.1
2017-Apr-17 00:00N 36°32' W 009°07'610.0
2017-Apr-16 23:21N 36°34' W 009°15'5 9.7
2017-Apr-16 22:53N 36°36' W 009°20'410.0
2017-Apr-16 22:30N 36°39' W 009°23'610.5
2017-Apr-16 21:56N 36°44' W 009°28'410.2
2017-Apr-16 21:31N 36°47' W 009°32'510.1
2017-Apr-16 21:00N 36°52' W 009°34'510.2
2017-Apr-16 20:30N 36°57' W 009°35'510.1
2017-Apr-16 20:00N 37°02' W 009°36'510.1
2017-Apr-16 19:29N 37°07' W 009°38'510.3
2017-Apr-16 19:00N 37°11' W 009°40'510.2
2017-Apr-16 18:30N 37°16' W 009°41'510.4
2017-Apr-16 18:00N 37°21' W 009°43'510.4
2017-Apr-16 17:30N 37°27' W 009°44'510.6
2017-Apr-16 17:01N 37°32' W 009°46'510.9
2017-Apr-16 16:31N 37°37' W 009°47'611.0
2017-Apr-16 16:00N 37°42' W 009°48'511.0
2017-Apr-16 15:31N 37°48' W 009°49'611.0
2017-Apr-16 15:01N 37°53' W 009°51'510.8
2017-Apr-16 14:31N 37°59' W 009°52'1110.7
2017-Apr-16 13:30N 38°09' W 009°55'510.6
2017-Apr-16 13:00N 38°14' W 009°56'510.5
2017-Apr-16 12:30N 38°19' W 009°58'510.6
2017-Apr-16 12:00N 38°24' W 009°60'510.5
2017-Apr-16 11:30N 38°30' W 010°01'610.5
2017-Apr-16 10:54N 38°36' W 010°03'410.6
2017-Apr-16 10:31N 38°40' W 010°04'510.1
2017-Apr-16 10:00N 38°45' W 010°06'510.2
2017-Apr-16 09:30N 38°50' W 010°06'510.8
2017-Apr-16 09:00N 38°55' W 010°06'510.5
2017-Apr-16 08:30N 39°00' W 010°06'510.9
2017-Apr-16 08:00N 39°06' W 010°06'510.6
2017-Apr-16 07:30N 39°11' W 010°06'510.1
2017-Apr-16 07:00N 39°16' W 010°06'610.4
2017-Apr-16 06:25N 39°22' W 010°06'410.4
2017-Apr-16 06:00N 39°27' W 010°06'510.2
2017-Apr-16 05:30N 39°32' W 010°06'510.4
2017-Apr-16 05:00N 39°37' W 010°06'610.4
2017-Apr-16 04:23N 39°43' W 010°06'  
2017-Apr-13 10:16N 49°40' W 003°48'410.5
2017-Apr-13 09:53N 49°42' W 003°42'410.1
2017-Apr-13 09:30N 49°44' W 003°37'5 9.5
2017-Apr-13 09:00N 49°46' W 003°30'5 9.1
2017-Apr-13 08:30N 49°48' W 003°24'4 8.6
2017-Apr-13 08:01N 49°50' W 003°19'4 8.5
2017-Apr-13 07:30N 49°52' W 003°13'5 8.6
2017-Apr-13 06:59N 49°55' W 003°07'4 8.5
2017-Apr-13 06:30N 49°56' W 003°01'5 9.3
2017-Apr-13 06:00N 49°59' W 002°55'5 9.8
2017-Apr-13 05:30N 50°00' W 002°48'9410.2
2017-Apr-12 20:20N 50°25' W 000°27'2 7.1
2017-Apr-12 20:00N 50°26' W 000°23'4 7.7
2017-Apr-12 19:30N 50°27' W 000°18'4 8.5
2017-Apr-12 19:00N 50°28' W 000°11'5 9.0
2017-Apr-12 18:28N 50°29' W 000°04'4 9.4
2017-Apr-12 18:00N 50°30' E 000°03'5 9.8
2017-Apr-12 17:30N 50°32' E 000°10'510.0
2017-Apr-12 17:00N 50°33' E 000°18'510.0
2017-Apr-12 16:29N 50°34' E 000°26'5 9.9
2017-Apr-12 16:00N 50°36' E 000°33'5 9.3
2017-Apr-12 15:31N 50°38' E 000°39'5 9.3
2017-Apr-12 14:58N 50°41' E 000°46'8 8.8
2017-Apr-12 14:00N 50°46' E 000°57'11 7.6
2017-Apr-12 12:35N 50°52' E 001°11'1 7.2
2017-Apr-12 12:23N 50°53' E 001°13'3 7.1
2017-Apr-12 12:00N 50°54' E 001°16'4 7.0
2017-Apr-12 11:29N 50°57' E 001°21'  

Dump ship's entire track history